Current Conditions
Heldere Lucht



Rainfall
0.00 (mm) - 0.00 (in)
Pressure
1023.92 (hPa) - 30.24 (inHG)
Visibility

10.0 (km) - 6.2 (miles)
   Temperature
10  °C
50°F
2  °C
Dewpoint
58  %
 Humidity
   Wind Speed
24  km/h
13  kts
15  mph
6.7  m/s
   Wind Direction
 340°
North North
West
   Airport Data
EHLE
Location Lelystad Airport 20 km (12.43 mi)
Metar :EHLE 171625Z AUTO 34013KT 310V010 9999 NSC 10/02 Q1024 NOSIG
Sat 17th April 18:25 pm
   Raw Metar Info
Raw METAR is the most common format in the world for the transmission of observational weather data. It is highly standardized through the International Civil Aviation Organization (ICAO), which allows it to be understood throughout most of the world.
   API Info
Data Provided by
https://www.checkwx.com/weather/EHLE
   © Info
CSS/SVG/PHP scripts were developed by weather34.com for use in the weather34 template © 2015-2021

Guide Info provided by Metar-Wikipedia